Terminal Aerodrome Forecast
Issued by NWS

Home | Current Version | Previous Version | Text Only | Print | Product List | Glossary Off
Versions: 1 2 3 4 5 6 7 8 9 10 11 12 13 14 15

000
FTUS43 KFGF 150538
TAFBJI
TAF
KBJI 150538Z 1506/1606 36010G18KT P6SM OVC045
     FM150700 33013G21KT P6SM OVC045
     FM152300 33011KT P6SM BKN030
     FM160100 34010KT P6SM BKN035
     FM160200 34009KT P6SM BKN025
     FM160500 33007KT P6SM SCT070=

USA.gov is the U.S. government's official web portal to all federal, state and local government web resources and services.